Terminal Aerodrome Forecast
Issued by NWS

Current Version | Previous Version | Graphics & Text | Print | Product List | Glossary On
Versions: 1 2 3 4 5 6 7 8 9 10 11 12 13 14 15 16 17 18 19
009
FTUS41 KPBZ 200521
TAFHLG
TAF
KHLG 200521Z 2006/2106 VRB03KT P6SM OVC030
     FM201100 20005KT P6SM BKN080
     FM202200 21005KT P6SM -RA OVC040
     FM210100 13005KT 3SM -RA BR OVC025
     FM210400 VRB03KT 3SM -RA BR OVC015=

USA.gov is the U.S. government's official web portal to all federal, state and local government web resources and services.